createdAt,value
2017-09-21T00:01:32.176Z,68.30
2017-09-21T00:03:58.843Z,73.45
2017-09-21T00:06:25.508Z,76.55
2017-09-21T00:08:52.196Z,74.75
2017-09-21T00:11:18.888Z,86.03
2017-09-21T00:13:45.548Z,70.40
2017-09-21T00:16:12.211Z,70.95
2017-09-21T00:18:38.904Z,82.85
2017-09-21T00:21:05.583Z,70.05
2017-09-21T00:23:32.287Z,69.25
2017-09-21T00:25:58.955Z,64.82
2017-09-21T00:28:25.631Z,72.30
2017-09-21T00:30:52.307Z,61.95
2017-09-21T00:33:19.069Z,66.50
2017-09-21T00:35:45.757Z,68.53
2017-09-21T00:38:12.426Z,66.80
2017-09-21T00:40:39.125Z,62.40
2017-09-21T00:43:05.791Z,59.88
2017-09-21T00:45:32.478Z,61.65
2017-09-21T00:47:59.143Z,70.20
2017-09-21T00:50:25.846Z,61.33
2017-09-21T00:52:52.508Z,69.00
2017-09-21T00:55:19.195Z,70.78
2017-09-21T00:57:45.875Z,61.30
2017-09-21T01:00:12.571Z,65.95
2017-09-21T01:02:39.247Z,58.25
2017-09-21T01:05:05.911Z,60.97
2017-09-21T01:07:32.575Z,69.25
2017-09-21T01:09:59.241Z,67.82
2017-09-21T01:12:25.948Z,50.63
2017-09-21T01:14:52.615Z,67.05
2017-09-21T01:17:19.300Z,60.78
2017-09-21T01:19:45.963Z,60.10
2017-09-21T01:22:12.655Z,61.95
2017-09-21T01:24:39.323Z,68.65
2017-09-21T01:27:06.016Z,70.90
2017-09-21T01:29:32.679Z,63.97
2017-09-21T01:31:59.347Z,61.13
2017-09-21T01:34:26.035Z,54.90
2017-09-21T01:36:52.700Z,62.62
2017-09-21T01:39:19.368Z,61.70
2017-09-21T01:41:46.047Z,63.78
2017-09-21T01:44:12.715Z,66.22
2017-09-21T01:46:39.384Z,65.37
2017-09-21T01:49:06.076Z,65.55
2017-09-21T01:51:32.746Z,67.53
2017-09-21T01:53:59.448Z,63.97
2017-09-21T01:56:26.124Z,76.10
2017-09-21T01:58:52.791Z,62.10
2017-09-21T02:01:19.447Z,69.68
2017-09-21T02:03:46.132Z,73.95
2017-09-21T02:06:12.799Z,63.47
2017-09-21T02:08:39.460Z,65.03
2017-09-21T02:11:06.148Z,61.70
2017-09-21T02:13:32.815Z,63.17
2017-09-21T02:15:59.504Z,62.10
2017-09-21T02:18:26.162Z,61.88
2017-09-21T02:20:52.851Z,64.25
2017-09-21T02:23:19.520Z,70.00
2017-09-21T02:25:46.219Z,67.50
2017-09-21T02:28:12.883Z,65.25
2017-09-21T02:30:39.597Z,65.20
2017-09-21T02:33:06.262Z,62.75
2017-09-21T02:35:32.928Z,67.00
2017-09-21T02:37:59.600Z,67.25
2017-09-21T02:40:26.292Z,72.90
2017-09-21T02:42:52.964Z,66.57
2017-09-21T02:45:19.629Z,59.72
2017-09-21T02:47:46.323Z,62.25
2017-09-21T02:50:12.988Z,61.47
2017-09-21T02:52:39.675Z,68.05
2017-09-21T02:55:06.335Z,65.93
2017-09-21T02:57:33.023Z,62.78
2017-09-21T02:59:59.683Z,66.70
2017-09-21T03:02:26.376Z,73.47
2017-09-21T03:04:53.039Z,66.70
2017-09-21T03:07:19.704Z,70.70
2017-09-21T03:09:46.367Z,72.03
2017-09-21T03:12:13.039Z,68.80
2017-09-21T03:14:39.707Z,81.78
2017-09-21T03:17:06.372Z,70.53
2017-09-21T03:19:33.060Z,79.80
2017-09-21T03:21:59.728Z,86.07
2017-09-21T03:24:26.415Z,75.55
2017-09-21T03:26:53.079Z,86.95
2017-09-21T03:29:19.779Z,84.78
2017-09-21T03:31:46.439Z,81.22
2017-09-21T03:34:13.103Z,81.25
2017-09-21T03:36:39.787Z,90.32
2017-09-21T03:39:06.451Z,91.15
2017-09-21T03:41:33.144Z,101.30
2017-09-21T03:43:59.807Z,99.40
2017-09-21T03:46:26.516Z,93.60
2017-09-21T03:48:53.199Z,98.65
2017-09-21T03:51:19.899Z,108.72
2017-09-21T03:53:46.567Z,109.45
2017-09-21T03:56:13.230Z,90.05
2017-09-21T03:58:39.895Z,99.28
2017-09-21T04:01:06.556Z,97.10
2017-09-21T04:03:33.223Z,108.80
2017-09-21T04:05:59.887Z,97.18
2017-09-21T04:08:26.554Z,109.28
2017-09-21T04:10:53.228Z,114.50
2017-09-21T04:13:19.931Z,120.85
2017-09-21T04:15:46.603Z,108.95
2017-09-21T04:18:13.276Z,111.78
2017-09-21T04:20:39.968Z,105.32
2017-09-21T04:23:06.643Z,100.10
2017-09-21T04:25:33.327Z,93.35
2017-09-21T04:28:00.011Z,99.80
2017-09-21T04:30:26.728Z,93.50
2017-09-21T04:32:53.392Z,88.22
2017-09-21T04:35:20.107Z,96.25
2017-09-21T04:37:46.775Z,81.60
2017-09-21T04:40:13.439Z,81.60
2017-09-21T04:42:40.110Z,76.20
2017-09-21T04:45:06.780Z,81.45
2017-09-21T04:47:33.467Z,71.95
2017-09-21T04:50:00.548Z,75.25
2017-09-21T04:52:27.235Z,85.97
2017-09-21T04:54:53.899Z,77.65
2017-09-21T04:57:20.587Z,71.68
2017-09-21T04:59:47.247Z,67.85
2017-09-21T05:02:13.956Z,82.85
2017-09-21T05:04:40.623Z,72.82
2017-09-21T05:07:07.287Z,72.20
2017-09-21T05:09:33.951Z,70.80
2017-09-21T05:12:00.631Z,82.35
2017-09-21T05:14:27.319Z,80.30
2017-09-21T05:16:54.008Z,77.30
2017-09-21T05:19:20.708Z,79.05
2017-09-21T05:21:47.371Z,77.90
2017-09-21T05:24:14.064Z,79.07
2017-09-21T05:26:40.722Z,70.40
2017-09-21T05:29:07.423Z,75.95
2017-09-21T05:31:34.083Z,71.72
2017-09-21T05:34:00.755Z,64.97
2017-09-21T05:36:27.423Z,77.90
2017-09-21T05:38:54.087Z,68.07
2017-09-21T05:41:20.772Z,67.35
2017-09-21T05:43:47.436Z,64.22
2017-09-21T05:46:14.124Z,74.05
2017-09-21T05:48:40.792Z,73.55
2017-09-21T05:51:07.495Z,67.25
2017-09-21T05:53:34.159Z,63.05
2017-09-21T05:56:00.828Z,64.10
2017-09-21T05:58:27.492Z,63.35
2017-09-21T06:00:54.163Z,65.80
2017-09-21T06:03:20.827Z,59.20
2017-09-21T06:05:47.497Z,57.28
2017-09-21T06:08:14.183Z,58.85
2017-09-21T06:10:40.847Z,64.87
2017-09-21T06:13:07.563Z,66.32
2017-09-21T06:15:34.231Z,52.75
2017-09-21T06:18:00.892Z,59.38
2017-09-21T06:20:27.565Z,54.80
2017-09-21T06:22:54.234Z,55.17
2017-09-21T06:25:20.899Z,57.05
2017-09-21T06:27:47.662Z,61.53
2017-09-21T06:30:14.354Z,57.90
2017-09-21T06:32:41.015Z,50.67
2017-09-21T06:35:07.708Z,48.50
2017-09-21T06:37:34.372Z,49.85
2017-09-21T06:40:01.067Z,48.00
2017-09-21T06:42:27.740Z,48.08
2017-09-21T06:44:54.443Z,44.92
2017-09-21T06:47:21.116Z,47.13
2017-09-21T06:49:47.779Z,45.20
2017-09-21T06:52:14.439Z,44.97
2017-09-21T06:54:41.103Z,45.30
2017-09-21T06:57:07.771Z,41.75
2017-09-21T06:59:34.447Z,42.45
2017-09-21T07:02:01.120Z,43.92
2017-09-21T07:04:27.784Z,35.92
2017-09-21T07:06:54.483Z,38.20
2017-09-21T07:09:21.147Z,34.30
2017-09-21T07:11:47.851Z,35.37
2017-09-21T07:14:14.511Z,34.60
2017-09-21T07:16:41.184Z,33.67
2017-09-21T07:19:07.852Z,35.60
2017-09-21T07:21:35.349Z,36.93
2017-09-21T07:24:02.016Z,37.90
2017-09-21T07:26:28.675Z,36.40
2017-09-21T07:28:55.343Z,37.70
2017-09-21T07:31:22.004Z,38.57
2017-09-21T07:33:48.696Z,37.03
2017-09-21T07:36:15.359Z,37.43
2017-09-21T07:38:42.068Z,36.80
2017-09-21T07:41:08.732Z,33.20
2017-09-21T07:43:35.390Z,35.50
2017-09-21T07:46:02.376Z,34.10
2017-09-21T07:48:29.071Z,34.90
2017-09-21T07:50:55.732Z,34.70
2017-09-21T07:53:22.412Z,32.73
2017-09-21T07:55:49.076Z,35.10
2017-09-21T07:58:15.743Z,34.80
2017-09-21T08:00:42.407Z,33.20
2017-09-21T08:03:09.075Z,33.57
2017-09-21T08:05:35.735Z,35.60
2017-09-21T08:08:02.396Z,35.27
2017-09-21T08:10:29.102Z,33.00
2017-09-21T08:12:55.759Z,34.77
2017-09-21T08:15:22.474Z,34.67
2017-09-21T08:17:49.143Z,32.40
2017-09-21T08:20:15.816Z,34.03
2017-09-21T08:22:42.484Z,32.43
2017-09-21T08:25:09.143Z,31.93
2017-09-21T08:27:35.831Z,34.80
2017-09-21T08:30:02.495Z,31.93
2017-09-21T08:32:29.184Z,31.43
2017-09-21T08:34:55.853Z,32.47
2017-09-21T08:37:22.548Z,31.93
2017-09-21T08:39:49.216Z,29.30
2017-09-21T08:42:15.928Z,30.37
2017-09-21T08:44:43.078Z,27.43
2017-09-21T08:47:09.981Z,29.10
2017-09-21T08:49:36.642Z,28.20
2017-09-21T08:52:03.304Z,29.67
2017-09-21T08:54:29.999Z,29.80
2017-09-21T08:56:56.659Z,29.33
2017-09-21T08:59:23.351Z,27.40
2017-09-21T09:01:50.024Z,27.50
2017-09-21T09:04:16.723Z,25.73
2017-09-21T09:06:43.388Z,26.10
2017-09-21T09:09:10.075Z,26.30
2017-09-21T09:11:36.734Z,25.57
2017-09-21T09:14:03.424Z,24.43
2017-09-21T09:16:30.091Z,24.33
2017-09-21T09:18:56.805Z,24.30
2017-09-21T09:21:23.467Z,23.30
2017-09-21T09:23:50.148Z,25.57
2017-09-21T09:26:16.812Z,23.27
2017-09-21T09:28:43.475Z,22.30
2017-09-21T09:31:10.160Z,22.57
2017-09-21T09:33:36.823Z,21.43
2017-09-21T09:36:03.507Z,22.57
2017-09-21T09:38:30.176Z,21.10
2017-09-21T09:40:56.864Z,22.87
2017-09-21T09:43:23.531Z,21.23
2017-09-21T09:45:50.235Z,20.03
2017-09-21T09:48:16.904Z,18.80
2017-09-21T09:50:43.567Z,18.80
2017-09-21T09:53:10.240Z,18.47
2017-09-21T09:55:36.947Z,16.87
2017-09-21T09:58:03.611Z,16.40
2017-09-21T10:00:30.276Z,18.53
2017-09-21T10:02:56.939Z,18.30
2017-09-21T10:05:23.599Z,18.00
2017-09-21T10:07:50.287Z,16.77
2017-09-21T10:10:16.951Z,18.07
2017-09-21T10:12:43.636Z,18.47
2017-09-21T10:15:10.304Z,20.13
2017-09-21T10:17:36.991Z,18.87
2017-09-21T10:20:03.655Z,18.70
2017-09-21T10:22:30.363Z,19.33
2017-09-21T10:24:57.028Z,19.40
2017-09-21T10:27:23.691Z,19.87
2017-09-21T10:29:50.351Z,19.07
2017-09-21T10:32:17.017Z,18.77
2017-09-21T10:34:43.728Z,16.70
2017-09-21T10:37:10.396Z,14.77
2017-09-21T10:39:37.078Z,15.43
2017-09-21T10:42:03.913Z,15.57
2017-09-21T10:44:30.604Z,15.20
2017-09-21T10:46:57.263Z,13.87
2017-09-21T10:49:23.951Z,14.50
2017-09-21T10:51:50.611Z,16.37
2017-09-21T10:54:17.320Z,13.67
2017-09-21T10:56:44.001Z,13.10
2017-09-21T10:59:10.667Z,12.73
2017-09-21T11:01:37.343Z,14.97
2017-09-21T11:04:04.008Z,12.67
2017-09-21T11:06:30.691Z,11.90
2017-09-21T11:08:57.351Z,13.73
2017-09-21T11:11:24.035Z,11.30
2017-09-21T11:13:50.706Z,12.33
2017-09-21T11:16:17.392Z,12.87
2017-09-21T11:18:44.144Z,11.77
2017-09-21T11:21:10.839Z,10.60
2017-09-21T11:23:37.901Z,12.20
2017-09-21T11:26:04.632Z,11.80
2017-09-21T11:28:31.294Z,12.60
2017-09-21T11:30:57.974Z,12.37
2017-09-21T11:33:24.635Z,11.87
2017-09-21T11:35:51.299Z,12.37
2017-09-21T11:38:17.982Z,12.60
2017-09-21T11:40:44.644Z,12.67
2017-09-21T11:43:11.339Z,12.47
2017-09-21T11:45:38.069Z,12.70
2017-09-21T11:48:04.780Z,10.83
2017-09-21T11:50:31.448Z,10.97
2017-09-21T11:52:58.131Z,12.20
2017-09-21T11:55:24.791Z,11.00
2017-09-21T11:57:51.443Z,8.93
2017-09-21T12:00:18.099Z,10.83
2017-09-21T12:02:44.778Z,12.30
2017-09-21T12:05:11.448Z,14.10
2017-09-21T12:07:38.115Z,11.70
2017-09-21T12:10:04.799Z,10.23
2017-09-21T12:12:31.460Z,12.27
2017-09-21T12:14:58.165Z,10.40
2017-09-21T12:17:24.818Z,8.87
2017-09-21T12:19:51.479Z,10.57
2017-09-21T12:22:18.131Z,9.30
2017-09-21T12:24:44.788Z,11.33
2017-09-21T12:27:11.443Z,6.33
2017-09-21T12:29:38.100Z,8.60
2017-09-21T12:32:04.755Z,8.30
2017-09-21T12:34:31.404Z,6.60
2017-09-21T12:36:58.060Z,6.93
2017-09-21T12:39:24.715Z,8.57
2017-09-21T12:41:51.367Z,8.60
2017-09-21T12:44:18.019Z,7.17
2017-09-21T12:46:44.720Z,9.20
2017-09-21T12:49:11.384Z,12.10
2017-09-21T12:51:38.045Z,9.80
2017-09-21T12:54:04.704Z,8.37
2017-09-21T12:56:31.355Z,7.70
2017-09-21T12:58:58.015Z,8.47
2017-09-21T13:01:24.667Z,7.93
2017-09-21T13:03:51.319Z,8.80
2017-09-21T13:06:17.984Z,9.60
2017-09-21T13:08:44.640Z,9.47
2017-09-21T13:11:11.300Z,9.80
2017-09-21T13:13:37.956Z,9.23
2017-09-21T13:16:04.616Z,10.33
2017-09-21T13:18:31.324Z,10.17
2017-09-21T13:20:57.987Z,11.47
2017-09-21T13:23:24.705Z,11.67
2017-09-21T13:25:51.367Z,10.80
2017-09-21T13:28:18.032Z,11.27
2017-09-21T13:30:44.695Z,11.03
2017-09-21T13:33:11.355Z,10.50
2017-09-21T13:35:38.031Z,10.70
2017-09-21T13:38:04.694Z,13.97
2017-09-21T13:40:31.380Z,11.50
2017-09-21T13:42:58.046Z,10.97
2017-09-21T13:45:24.736Z,10.70
2017-09-21T13:47:51.391Z,10.33
2017-09-21T13:50:18.055Z,10.83
2017-09-21T13:52:44.715Z,10.60
2017-09-21T13:55:11.367Z,10.40
2017-09-21T13:57:38.048Z,9.70
2017-09-21T14:00:04.699Z,9.93
2017-09-21T14:02:31.398Z,12.60
2017-09-21T14:04:58.080Z,11.88
2017-09-21T14:07:24.775Z,11.23
2017-09-21T14:09:51.440Z,10.60
2017-09-21T14:12:18.124Z,10.77
2017-09-21T14:14:44.798Z,12.25
2017-09-21T14:17:11.499Z,12.20
2017-09-21T14:19:38.164Z,10.20
2017-09-21T14:22:04.880Z,11.35
2017-09-21T14:24:31.552Z,9.00
2017-09-21T14:26:58.215Z,9.82
2017-09-21T14:29:24.880Z,9.63
2017-09-21T14:31:51.551Z,11.50
2017-09-21T14:34:18.211Z,9.13
2017-09-21T14:36:44.868Z,9.88
2017-09-21T14:39:11.556Z,9.65
2017-09-21T14:41:38.219Z,10.23
2017-09-21T14:44:04.911Z,11.00
2017-09-21T14:46:31.584Z,10.55
2017-09-21T14:48:58.268Z,9.20
2017-09-21T14:51:24.936Z,10.20
2017-09-21T14:53:51.632Z,11.70
2017-09-21T14:56:18.295Z,10.05
2017-09-21T14:58:45.004Z,10.60
2017-09-21T15:01:11.672Z,13.20
2017-09-21T15:03:38.339Z,8.57
2017-09-21T15:06:05.016Z,11.25
2017-09-21T15:08:31.688Z,10.10
2017-09-21T15:10:58.364Z,10.38
2017-09-21T15:13:25.032Z,9.93
2017-09-21T15:15:51.691Z,10.35
2017-09-21T15:18:18.364Z,10.90
2017-09-21T15:20:45.059Z,11.65
2017-09-21T15:23:11.736Z,11.40
2017-09-21T15:25:38.435Z,9.98
2017-09-21T15:28:05.103Z,11.05
2017-09-21T15:30:31.793Z,10.45
2017-09-21T15:32:58.470Z,10.13
2017-09-21T15:35:25.132Z,10.15
2017-09-21T15:37:51.800Z,9.70
2017-09-21T15:40:18.469Z,10.93
2017-09-21T15:42:45.144Z,11.30
2017-09-21T15:45:11.811Z,12.00
2017-09-21T15:47:38.503Z,10.07
2017-09-21T15:50:05.167Z,10.68
2017-09-21T15:52:31.879Z,13.90
2017-09-21T15:54:58.544Z,11.00
2017-09-21T15:57:25.204Z,9.32
2017-09-21T15:59:51.859Z,9.88
2017-09-21T16:02:18.520Z,9.77
2017-09-21T16:04:45.179Z,9.60
2017-09-21T16:07:11.844Z,9.63
2017-09-21T16:09:38.503Z,9.00
2017-09-21T16:12:05.170Z,9.20
2017-09-21T16:14:31.836Z,9.60
2017-09-21T16:16:58.495Z,8.52
2017-09-21T16:19:25.185Z,8.68
2017-09-21T16:21:51.848Z,10.27
2017-09-21T16:24:18.532Z,10.02
2017-09-21T16:26:45.200Z,10.02
2017-09-21T16:29:11.896Z,9.63
2017-09-21T16:31:38.560Z,8.73
2017-09-21T16:34:05.211Z,8.82
2017-09-21T16:36:31.875Z,9.80
2017-09-21T16:38:58.540Z,9.45
2017-09-21T16:41:25.206Z,10.10
2017-09-21T16:43:51.864Z,9.73
2017-09-21T16:46:18.535Z,9.90
2017-09-21T16:48:45.192Z,9.60
2017-09-21T16:51:11.859Z,10.45
2017-09-21T16:53:38.519Z,7.82
2017-09-21T16:56:05.200Z,9.82
2017-09-21T16:58:31.864Z,9.18
2017-09-21T17:00:58.547Z,8.90
2017-09-21T17:03:25.321Z,11.05
2017-09-21T17:05:52.018Z,15.70
2017-09-21T17:08:18.683Z,22.45
2017-09-21T17:10:45.367Z,23.60
2017-09-21T17:13:12.027Z,20.30
2017-09-21T17:15:38.715Z,18.40
2017-09-21T17:18:05.388Z,19.50
2017-09-21T17:20:32.103Z,17.75
2017-09-21T17:22:58.772Z,17.08
2017-09-21T17:25:25.441Z,15.52
2017-09-21T17:27:52.112Z,16.08
2017-09-21T17:30:18.784Z,13.55
2017-09-21T17:32:45.456Z,13.10
2017-09-21T17:35:12.124Z,14.00
2017-09-21T17:37:38.788Z,14.43
2017-09-21T17:40:05.488Z,13.88
2017-09-21T17:42:32.152Z,14.35
2017-09-21T17:44:58.811Z,14.05
2017-09-21T17:47:25.475Z,15.05
2017-09-21T17:49:52.143Z,16.37
2017-09-21T17:52:18.813Z,17.08
2017-09-21T17:54:45.500Z,16.42
2017-09-21T17:57:12.163Z,18.55
2017-09-21T17:59:38.859Z,17.90
2017-09-21T18:02:05.525Z,19.15
2017-09-21T18:04:32.227Z,16.25
2017-09-21T18:06:58.928Z,17.42
2017-09-21T18:09:25.616Z,17.33
2017-09-21T18:11:52.287Z,15.65
2017-09-21T18:14:18.959Z,15.57
2017-09-21T18:16:45.624Z,18.05
2017-09-21T18:19:12.295Z,17.15
2017-09-21T18:21:38.983Z,15.73
2017-09-21T18:24:05.654Z,14.90
2017-09-21T18:26:32.347Z,13.80
2017-09-21T18:28:59.015Z,14.63
2017-09-21T18:31:25.701Z,16.40
2017-09-21T18:33:52.371Z,16.30
2017-09-21T18:36:19.056Z,17.62
2017-09-21T18:38:45.728Z,17.60
2017-09-21T18:41:12.478Z,18.17
2017-09-21T18:43:39.163Z,19.35
2017-09-21T18:46:05.863Z,19.65
2017-09-21T18:48:32.543Z,18.30
2017-09-21T18:50:59.208Z,18.90
2017-09-21T18:53:25.871Z,19.15
2017-09-21T18:55:52.541Z,20.33
2017-09-21T18:58:19.239Z,22.25
2017-09-21T19:00:45.904Z,18.30
2017-09-21T19:03:12.642Z,19.75
2017-09-21T19:05:39.311Z,19.00
2017-09-21T19:08:06.003Z,21.00
2017-09-21T19:10:32.668Z,23.55
2017-09-21T19:12:59.357Z,24.25
2017-09-21T19:15:26.019Z,23.92
2017-09-21T19:17:52.731Z,27.95
2017-09-21T19:20:19.399Z,27.05
2017-09-21T19:22:46.063Z,26.50
2017-09-21T19:25:12.727Z,28.48
2017-09-21T19:27:39.387Z,26.00
2017-09-21T19:30:06.056Z,25.08
2017-09-21T19:32:32.719Z,22.92
2017-09-21T19:34:59.413Z,23.50
2017-09-21T19:37:26.087Z,24.35
2017-09-21T19:39:52.783Z,22.52
2017-09-21T19:42:19.443Z,26.10
2017-09-21T19:44:46.136Z,25.83
2017-09-21T19:47:12.799Z,25.52
2017-09-21T19:49:39.461Z,25.80
2017-09-21T19:52:06.132Z,27.00
2017-09-21T19:54:32.794Z,24.63
2017-09-21T19:56:59.455Z,26.85
2017-09-21T19:59:26.123Z,23.62
2017-09-21T20:01:52.796Z,23.52
2017-09-21T20:04:19.463Z,25.75
2017-09-21T20:06:46.132Z,23.92
2017-09-21T20:09:12.799Z,26.70
2017-09-21T20:11:39.511Z,25.62
2017-09-21T20:14:06.176Z,24.98
2017-09-21T20:16:32.864Z,24.87
2017-09-21T20:18:59.528Z,26.23
2017-09-21T20:21:26.231Z,24.95
2017-09-21T20:23:52.932Z,25.60
2017-09-21T20:26:19.599Z,27.25
2017-09-21T20:28:46.263Z,24.48
2017-09-21T20:31:12.930Z,24.95
2017-09-21T20:33:39.607Z,22.90
2017-09-21T20:36:06.287Z,25.08
2017-09-21T20:38:32.951Z,25.88
2017-09-21T20:40:59.612Z,24.77
2017-09-21T20:43:26.275Z,24.73
2017-09-21T20:45:52.946Z,24.73
2017-09-21T20:48:19.611Z,23.60
2017-09-21T20:50:46.280Z,23.73
2017-09-21T20:53:12.972Z,24.85
2017-09-21T20:55:39.636Z,26.10
2017-09-21T20:58:06.306Z,24.23
2017-09-21T21:00:32.966Z,26.40
2017-09-21T21:02:59.652Z,27.17
2017-09-21T21:05:26.328Z,26.90
2017-09-21T21:07:53.016Z,26.27
2017-09-21T21:10:19.680Z,26.48
2017-09-21T21:12:46.366Z,27.90
2017-09-21T21:15:13.027Z,28.58
2017-09-21T21:17:39.686Z,26.30
2017-09-21T21:20:06.396Z,31.37
2017-09-21T21:22:33.060Z,27.77
2017-09-21T21:24:59.723Z,29.60
2017-09-21T21:27:26.387Z,27.73
2017-09-21T21:29:53.085Z,29.92
2017-09-21T21:32:19.744Z,32.90
2017-09-21T21:34:46.412Z,31.98
2017-09-21T21:37:13.080Z,32.45
2017-09-21T21:39:39.767Z,36.97
2017-09-21T21:42:06.427Z,28.77
2017-09-21T21:44:33.120Z,30.62
2017-09-21T21:46:59.779Z,28.95
2017-09-21T21:49:26.480Z,29.85
2017-09-21T21:51:53.187Z,28.30
2017-09-21T21:54:19.851Z,27.83
2017-09-21T21:56:46.539Z,28.55
2017-09-21T21:59:13.204Z,29.30
2017-09-21T22:01:39.892Z,28.92
2017-09-21T22:04:06.551Z,30.23
2017-09-21T22:06:33.239Z,28.62
2017-09-21T22:08:59.904Z,28.90
2017-09-21T22:11:26.607Z,33.08
2017-09-21T22:13:53.274Z,36.47
2017-09-21T22:16:19.948Z,34.38
2017-09-21T22:18:46.615Z,34.15
2017-09-21T22:21:13.283Z,33.67
2017-09-21T22:23:39.979Z,34.28
2017-09-21T22:26:06.639Z,35.30
2017-09-21T22:28:33.330Z,33.03
2017-09-21T22:31:00.000Z,34.15
2017-09-21T22:33:26.692Z,32.25
2017-09-21T22:35:53.360Z,34.00
2017-09-21T22:38:20.063Z,39.05
2017-09-21T22:40:46.750Z,33.88
2017-09-21T22:43:13.411Z,37.03
2017-09-21T22:45:40.079Z,43.72
2017-09-21T22:48:06.743Z,38.10
2017-09-21T22:50:33.407Z,33.03
2017-09-21T22:53:00.067Z,32.85
2017-09-21T22:55:26.732Z,33.70
2017-09-21T22:57:53.396Z,33.45
2017-09-21T23:00:20.915Z,38.85
2017-09-21T23:02:47.579Z,42.20
2017-09-21T23:05:14.271Z,41.50
2017-09-21T23:07:40.939Z,41.42
2017-09-21T23:10:07.627Z,39.55
2017-09-21T23:12:34.295Z,37.63
2017-09-21T23:15:00.993Z,33.58
2017-09-21T23:17:27.655Z,37.05
2017-09-21T23:19:54.355Z,36.22
2017-09-21T23:22:21.023Z,37.58
2017-09-21T23:24:47.682Z,40.15
2017-09-21T23:27:14.347Z,34.38
2017-09-21T23:29:41.011Z,33.28
2017-09-21T23:32:07.671Z,37.47
2017-09-21T23:34:34.336Z,42.33
2017-09-21T23:37:00.999Z,37.00
2017-09-21T23:39:27.663Z,35.95
2017-09-21T23:41:54.355Z,33.65
2017-09-21T23:44:21.019Z,34.95
2017-09-21T23:46:47.708Z,34.95
2017-09-21T23:49:14.372Z,33.92
2017-09-21T23:51:41.087Z,38.10
2017-09-21T23:54:07.747Z,35.17
2017-09-21T23:56:34.411Z,36.03
2017-09-21T23:59:01.076Z,37.28
